Time;durP1;ratioP1;P1;durP2;ratioP2;P2;SDS_P1;SDS_P2;PMS_P1;PMS_P2;Temp;Humidity;BMP_temperature;BMP_pressure;BME280_temperature;BME280_humidity;BME280_pressure;Samples;Min_cycle;Max_cycle;Signal;HPM_P1;HPM_P2
2022/01/09 00:01:43;;;;;;;2.03;1.33;;;;;;;-0.04;89.46;92972.06;5073066;28;20651;-75
2022/01/09 00:04:08;;;;;;;2.30;1.20;;;;;;;0.10;90.74;92954.72;5070353;28;20196;-75
2022/01/09 00:06:34;;;;;;;3.33;1.40;;;;;;;0.09;91.10;92973.91;5058789;28;20785;-75
2022/01/09 00:09:00;;;;;;;1.43;1.33;;;;;;;0.13;90.75;92945.78;5077343;28;20330;-75
2022/01/09 00:11:26;;;;;;;1.40;1.10;;;;;;;0.14;90.33;92957.28;5060100;28;20990;-74
2022/01/09 00:13:55;;;;;;;1.83;1.10;;;;;;;0.30;91.33;92954.38;5070853;28;20264;-74
2022/01/09 00:16:23;;;;;;;2.40;1.13;;;;;;;0.38;94.01;92959.03;5071449;28;20205;-75
2022/01/09 00:18:49;;;;;;;1.97;1.00;;;;;;;0.40;91.96;92953.25;5060207;28;20196;-74
2022/01/09 00:21:18;;;;;;;2.60;1.60;;;;;;;0.33;90.21;92930.09;5070444;28;20275;-75
2022/01/09 00:23:47;;;;;;;1.43;1.20;;;;;;;0.30;91.96;92925.59;5068406;28;20298;-75
2022/01/09 00:26:16;;;;;;;1.87;1.20;;;;;;;0.35;92.46;92924.28;5070711;28;20262;-75
2022/01/09 00:28:41;;;;;;;1.43;1.20;;;;;;;0.39;92.37;92925.63;5076042;28;20252;-75
2022/01/09 00:31:07;;;;;;;1.17;1.07;;;;;;;0.43;94.78;92912.09;5077357;28;20209;-75
2022/01/09 00:33:33;;;;;;;1.67;1.07;;;;;;;0.42;91.00;92922.09;5078298;28;20201;-75
2022/01/09 00:35:58;;;;;;;2.03;1.00;;;;;;;0.39;89.69;92916.84;5078808;28;20236;-75
2022/01/09 00:38:24;;;;;;;1.77;1.10;;;;;;;0.53;92.07;92914.38;5060675;28;20210;-75
2022/01/09 00:40:53;;;;;;;0.80;0.80;;;;;;;0.59;91.80;92909.19;5079404;28;20202;-75
2022/01/09 00:43:19;;;;;;;2.10;1.10;;;;;;;0.52;91.18;92912.13;5069701;28;20205;-75
2022/01/09 00:45:45;;;;;;;1.93;1.40;;;;;;;0.43;92.27;92893.28;5036774;28;20304;-75
2022/01/09 00:48:11;;;;;;;1.00;0.90;;;;;;;0.47;91.82;92875.88;5062664;28;20189;-75
2022/01/09 00:50:38;;;;;;;1.10;1.00;;;;;;;0.52;92.10;92877.97;5042997;28;20194;-75
2022/01/09 00:53:04;;;;;;;1.80;1.20;;;;;;;0.49;91.61;92878.88;5064975;28;20193;-75
2022/01/09 00:55:30;;;;;;;1.20;1.00;;;;;;;0.50;87.88;92871.53;5073320;28;20745;-75
2022/01/09 00:57:59;;;;;;;1.30;1.20;;;;;;;0.39;89.40;92871.22;5068341;28;20212;-75
2022/01/09 01:00:25;;;;;;;1.47;1.20;;;;;;;0.48;91.64;92879.28;5076120;28;20185;-75
2022/01/09 01:02:50;;;;;;;3.40;1.67;;;;;;;0.50;93.68;92890.34;5061151;28;20192;-74
2022/01/09 01:05:16;;;;;;;4.33;2.67;;;;;;;0.56;93.75;92886.63;5058825;28;20206;-74
2022/01/09 01:07:42;;;;;;;4.97;3.07;;;;;;;0.74;96.36;92908.19;5050586;28;20194;-74
2022/01/09 01:10:08;;;;;;;4.57;2.67;;;;;;;0.48;98.98;92900.75;5072671;28;20198;-74
2022/01/09 01:12:34;;;;;;;7.30;3.10;;;;;;;0.40;100.00;92883.44;5068348;28;20278;-74
2022/01/09 01:15:03;;;;;;;2.27;1.60;;;;;;;0.23;97.53;92879.47;5071873;28;20630;-74
2022/01/09 01:17:29;;;;;;;2.83;1.53;;;;;;;0.29;97.24;92918.72;5072927;28;20288;-74
2022/01/09 01:19:54;;;;;;;2.10;1.00;;;;;;;0.21;97.04;92908.69;5077064;28;20711;-74
2022/01/09 01:22:20;;;;;;;1.63;1.00;;;;;;;0.44;96.72;92900.16;5077406;28;20186;-74
2022/01/09 01:24:47;;;;;;;2.43;1.20;;;;;;;0.59;95.09;92896.50;5078183;28;20199;-74
2022/01/09 01:27:13;;;;;;;0.97;0.87;;;;;;;0.55;93.33;92895.13;5084241;28;20251;-74
2022/01/09 01:29:40;;;;;;;2.63;1.20;;;;;;;0.76;96.40;92897.75;5055834;28;20599;-75
2022/01/09 01:32:08;;;;;;;2.17;1.20;;;;;;;0.75;94.69;92876.69;5052473;28;20280;-75
2022/01/09 01:34:34;;;;;;;1.10;1.00;;;;;;;0.69;94.06;92865.81;5064154;28;20210;-74
2022/01/09 01:37:03;;;;;;;1.33;1.03;;;;;;;0.66;98.32;92855.91;5082064;28;20428;-74
2022/01/09 01:39:29;;;;;;;1.20;1.10;;;;;;;0.68;96.93;92863.56;5078294;28;20269;-74
2022/01/09 01:41:55;;;;;;;1.53;1.03;;;;;;;0.67;100.00;92886.97;5076892;28;20296;-75
2022/01/09 01:44:20;;;;;;;1.80;1.30;;;;;;;0.70;100.00;92886.09;5069667;28;20217;-75
2022/01/09 01:46:46;;;;;;;1.70;1.13;;;;;;;0.74;100.00;92894.00;5063388;28;20218;-74
2022/01/09 01:49:13;;;;;;;2.73;1.70;;;;;;;0.56;100.00;92880.53;5060206;28;20197;-74
2022/01/09 01:51:41;;;;;;;2.10;1.40;;;;;;;0.63;100.00;92907.13;5077564;28;20229;-74
2022/01/09 01:54:10;;;;;;;1.57;1.10;;;;;;;0.46;100.00;92897.78;5065414;28;20189;-74
2022/01/09 01:56:36;;;;;;;1.60;1.10;;;;;;;0.53;100.00;92903.63;5058947;28;20227;-74
2022/01/09 01:59:04;;;;;;;0.50;0.50;;;;;;;0.63;100.00;92905.16;5057227;28;20190;-74
2022/01/09 02:01:30;;;;;;;0.70;0.70;;;;;;;0.66;100.00;92896.22;5068919;28;20227;-74
2022/01/09 02:03:56;;;;;;;0.73;0.73;;;;;;;0.50;100.00;92893.03;5075269;28;20308;-74
2022/01/09 02:06:22;;;;;;;1.30;0.77;;;;;;;0.40;100.00;92899.53;5070159;28;20209;-74
2022/01/09 02:08:47;;;;;;;1.00;0.90;;;;;;;0.44;100.00;92889.44;5058241;28;20204;-74
2022/01/09 02:11:14;;;;;;;0.80;0.70;;;;;;;0.46;100.00;92887.06;5075978;28;20204;-74
2022/01/09 02:13:41;;;;;;;1.40;0.90;;;;;;;0.50;100.00;92885.72;5068210;28;20773;-74
2022/01/09 02:16:16;;;;;;;2.20;0.80;;;;;;;0.66;100.00;92884.75;5059448;28;20571;-74
2022/01/09 02:18:43;;;;;;;0.73;0.70;;;;;;;0.76;100.00;92880.88;5048051;28;20209;-74
2022/01/09 02:21:10;;;;;;;1.27;1.10;;;;;;;0.62;100.00;92863.38;5082670;28;20193;-74
2022/01/09 02:23:38;;;;;;;0.60;0.60;;;;;;;0.47;100.00;92834.84;5050075;28;20668;-74
2022/01/09 02:26:04;;;;;;;0.70;0.70;;;;;;;0.61;100.00;92853.81;5057410;28;20206;-74
2022/01/09 02:28:29;;;;;;;0.77;0.77;;;;;;;0.52;100.00;92848.44;5076751;28;20194;-74
2022/01/09 02:30:55;;;;;;;1.50;0.80;;;;;;;0.50;100.00;92840.06;5022769;28;20193;-74
2022/01/09 02:33:21;;;;;;;0.87;0.80;;;;;;;0.63;100.00;92835.34;5084176;28;20197;-74
2022/01/09 02:35:51;;;;;;;2.17;1.50;;;;;;;0.55;100.00;92839.50;5071452;28;20557;-75
2022/01/09 02:38:19;;;;;;;2.57;1.43;;;;;;;0.60;100.00;92848.91;5065664;28;20684;-75
2022/01/09 02:40:50;;;;;;;3.27;1.37;;;;;;;0.63;100.00;92848.03;5073164;28;20855;-75
2022/01/09 02:43:16;;;;;;;1.43;1.10;;;;;;;0.44;100.00;92827.69;5063462;28;20226;-74
2022/01/09 02:45:45;;;;;;;1.30;1.20;;;;;;;0.46;100.00;92828.00;5058434;28;20715;-75
2022/01/09 02:48:11;;;;;;;0.93;0.80;;;;;;;0.66;100.00;92831.75;5052853;28;20715;-75
2022/01/09 02:50:42;;;;;;;1.77;0.80;;;;;;;0.82;100.00;92820.00;5085645;28;20193;-75
2022/01/09 02:53:20;;;;;;;1.50;1.00;;;;;;;0.79;100.00;92828.97;5072840;28;20281;-74
2022/01/09 02:55:46;;;;;;;1.57;0.90;;;;;;;0.73;100.00;92820.72;5058745;28;20765;-74
2022/01/09 02:58:12;;;;;;;1.43;0.90;;;;;;;0.82;100.00;92818.06;5064858;28;20209;-75
2022/01/09 03:00:42;;;;;;;1.63;0.80;;;;;;;0.89;100.00;92820.47;5080473;28;20250;-75
2022/01/09 03:03:08;;;;;;;3.00;1.10;;;;;;;0.73;100.00;92809.25;5063072;28;20202;-75
2022/01/09 03:05:34;;;;;;;1.73;0.90;;;;;;;0.73;100.00;92799.25;5073665;28;20213;-75
2022/01/09 03:08:01;;;;;;;1.27;1.07;;;;;;;0.77;100.00;92782.97;5072208;28;20699;-75
2022/01/09 03:10:27;;;;;;;0.83;0.83;;;;;;;0.75;100.00;92782.69;5051661;28;20209;-75
2022/01/09 03:12:56;;;;;;;2.30;1.10;;;;;;;0.72;100.00;92778.19;5059136;28;20192;-75
2022/01/09 03:15:22;;;;;;;2.20;0.90;;;;;;;0.75;100.00;92794.19;5054763;28;20593;-75
2022/01/09 03:17:48;;;;;;;2.03;1.00;;;;;;;0.79;100.00;92761.81;5067297;28;20204;-75
2022/01/09 03:20:22;;;;;;;1.60;1.03;;;;;;;0.73;100.00;92758.94;5076849;28;20556;-75
2022/01/09 03:22:49;;;;;;;2.17;1.43;;;;;;;0.61;100.00;92780.59;5055448;28;20193;-75
2022/01/09 03:25:15;;;;;;;1.57;1.10;;;;;;;0.62;100.00;92757.91;5065016;28;20217;-75
2022/01/09 03:27:45;;;;;;;1.27;1.17;;;;;;;0.58;100.00;92760.72;5078629;28;20212;-75
2022/01/09 03:30:12;;;;;;;1.20;1.10;;;;;;;0.57;100.00;92771.91;5070612;28;20350;-75
2022/01/09 03:32:39;;;;;;;2.87;1.67;;;;;;;0.56;100.00;92770.44;5072980;28;20191;-75
2022/01/09 03:35:08;;;;;;;1.80;1.17;;;;;;;0.52;100.00;92765.22;5060232;28;20545;-75
2022/01/09 03:37:34;;;;;;;0.80;0.80;;;;;;;0.45;100.00;92778.16;5061692;28;20268;-75
2022/01/09 03:40:00;;;;;;;1.40;1.00;;;;;;;0.39;100.00;92778.00;5072073;28;20198;-74
2022/01/09 03:42:27;;;;;;;0.73;0.53;;;;;;;0.66;100.00;92769.25;5049377;28;20682;-75
2022/01/09 03:44:56;;;;;;;1.67;1.17;;;;;;;0.64;100.00;92769.72;5058532;28;20202;-75
2022/01/09 03:47:25;;;;;;;4.50;1.33;;;;;;;0.57;100.00;92782.66;5052904;28;20220;-75
2022/01/09 03:49:53;;;;;;;1.07;0.67;;;;;;;0.84;100.00;92785.38;5082027;28;20189;-75
2022/01/09 03:52:19;;;;;;;0.83;0.70;;;;;;;0.54;100.00;92784.31;5084784;28;20200;-75
2022/01/09 03:54:47;;;;;;;0.77;0.60;;;;;;;0.42;100.00;92781.72;5075102;28;20555;-75
2022/01/09 03:57:16;;;;;;;0.70;0.70;;;;;;;0.41;100.00;92780.97;5072830;28;20240;-75
2022/01/09 03:59:41;;;;;;;0.70;0.50;;;;;;;0.52;100.00;92784.00;5068393;28;20198;-75
2022/01/09 04:02:07;;;;;;;0.60;0.60;;;;;;;0.34;100.00;92789.31;5065412;28;20186;-75
2022/01/09 04:04:33;;;;;;;1.07;0.97;;;;;;;0.21;100.00;92798.66;5080497;28;20193;-75
2022/01/09 04:06:58;;;;;;;0.63;0.50;;;;;;;0.40;100.00;92809.03;5065707;28;20545;-75
2022/01/09 04:09:37;;;;;;;0.60;0.60;;;;;;;0.45;100.00;92795.03;5076429;28;20200;-75
2022/01/09 04:12:06;;;;;;;0.63;0.50;;;;;;;0.56;100.00;92813.41;5074015;28;20185;-75
2022/01/09 04:14:32;;;;;;;0.93;0.70;;;;;;;0.64;100.00;92814.59;5054116;28;20194;-75
2022/01/09 04:17:00;;;;;;;0.97;0.43;;;;;;;0.75;100.00;92810.28;5061224;28;20232;-75
2022/01/09 04:19:28;;;;;;;0.67;0.50;;;;;;;0.81;100.00;92795.09;5074467;28;20271;-75
2022/01/09 04:21:56;;;;;;;0.50;0.50;;;;;;;0.85;100.00;92811.03;5065095;28;20189;-75
2022/01/09 04:24:22;;;;;;;0.47;0.47;;;;;;;0.87;100.00;92819.41;5051434;28;20193;-75
2022/01/09 04:26:48;;;;;;;0.47;0.47;;;;;;;0.89;100.00;92803.59;5068013;28;20219;-74
2022/01/09 04:29:14;;;;;;;0.67;0.43;;;;;;;1.03;100.00;92800.34;5077544;28;20246;-75
2022/01/09 04:31:39;;;;;;;1.17;0.40;;;;;;;1.34;100.00;92797.50;5065169;28;20277;-75
2022/01/09 04:34:05;;;;;;;0.40;0.40;;;;;;;1.50;100.00;92783.72;5060714;28;20225;-75
2022/01/09 04:36:33;;;;;;;0.40;0.40;;;;;;;1.60;100.00;92798.63;5066859;28;20271;-75
2022/01/09 04:38:59;;;;;;;0.50;0.40;;;;;;;1.65;100.00;92798.03;5074903;28;20264;-75
2022/01/09 04:41:25;;;;;;;0.43;0.43;;;;;;;1.81;100.00;92797.72;5067562;28;20232;-75
2022/01/09 04:43:51;;;;;;;0.50;0.50;;;;;;;1.95;100.00;92805.16;5070232;28;20216;-75
2022/01/09 04:46:24;;;;;;;0.33;0.33;;;;;;;1.99;100.00;92808.41;5056551;28;20943;-75
2022/01/09 04:48:52;;;;;;;0.30;0.30;;;;;;;2.08;100.00;92798.38;5060742;28;20193;-75
2022/01/09 04:51:18;;;;;;;0.70;0.33;;;;;;;2.32;100.00;92814.59;5078182;28;20188;-75
2022/01/09 04:53:44;;;;;;;0.30;0.30;;;;;;;2.44;100.00;92817.06;5051914;28;20194;-75
2022/01/09 04:56:10;;;;;;;0.30;0.30;;;;;;;2.58;100.00;92812.97;5077733;28;20221;-75
2022/01/09 04:58:35;;;;;;;0.30;0.30;;;;;;;2.57;100.00;92813.44;5086118;28;20231;-75
2022/01/09 05:01:01;;;;;;;0.30;0.30;;;;;;;2.66;100.00;92824.16;5067501;28;20221;-75
2022/01/09 05:03:27;;;;;;;0.53;0.20;;;;;;;2.64;100.00;92840.03;5077454;28;20275;-75
2022/01/09 05:05:52;;;;;;;1.67;0.30;;;;;;;2.71;100.00;92834.31;5077908;28;20266;-75
2022/01/09 05:08:18;;;;;;;0.23;0.23;;;;;;;2.71;100.00;92845.09;5073274;28;20189;-75
2022/01/09 05:10:47;;;;;;;0.20;0.20;;;;;;;2.66;100.00;92849.16;5071140;28;20201;-75
2022/01/09 05:13:13;;;;;;;0.20;0.20;;;;;;;2.70;100.00;92851.69;5051244;28;20201;-77
2022/01/09 05:15:38;;;;;;;0.50;0.30;;;;;;;2.64;100.00;92848.88;5070864;28;20210;-75
2022/01/09 05:18:11;;;;;;;0.20;0.20;;;;;;;2.63;100.00;92847.38;5076622;28;20204;-75
2022/01/09 05:20:37;;;;;;;0.30;0.30;;;;;;;2.55;100.00;92845.47;5061100;28;20192;-75
2022/01/09 05:23:03;;;;;;;0.20;0.20;;;;;;;2.53;100.00;92847.88;5081347;28;20194;-75
2022/01/09 05:25:29;;;;;;;0.30;0.30;;;;;;;2.53;100.00;92839.81;5065830;28;20313;-75
2022/01/09 05:27:55;;;;;;;0.60;0.40;;;;;;;2.58;100.00;92852.66;5067047;28;20190;-75
2022/01/09 05:30:20;;;;;;;0.30;0.30;;;;;;;2.69;100.00;92848.25;5067734;28;20193;-75
2022/01/09 05:32:46;;;;;;;0.40;0.40;;;;;;;2.66;100.00;92849.16;5072215;28;20197;-75
2022/01/09 05:35:12;;;;;;;0.20;0.20;;;;;;;2.77;100.00;92845.94;5072591;28;20223;-74
2022/01/09 05:37:38;;;;;;;0.20;0.20;;;;;;;2.88;100.00;92833.47;5077300;28;20230;-75
2022/01/09 05:40:07;;;;;;;0.40;0.30;;;;;;;2.69;100.00;92824.00;5064123;28;20207;-75
2022/01/09 05:42:33;;;;;;;2.00;0.40;;;;;;;2.78;100.00;92836.69;5055265;28;20572;-74
2022/01/09 05:44:59;;;;;;;0.30;0.30;;;;;;;2.83;100.00;92852.22;5074244;28;20676;-76
2022/01/09 05:47:25;;;;;;;0.30;0.30;;;;;;;2.81;100.00;92844.59;5069631;28;20648;-75
2022/01/09 05:49:51;;;;;;;0.30;0.30;;;;;;;2.83;100.00;92836.06;5046980;28;20225;-74
2022/01/09 05:52:16;;;;;;;0.30;0.30;;;;;;;2.93;100.00;92851.72;5075009;28;20177;-74
2022/01/09 05:54:42;;;;;;;0.20;0.20;;;;;;;2.93;100.00;92857.13;5076622;28;20199;-74
2022/01/09 05:57:08;;;;;;;0.20;0.20;;;;;;;2.94;100.00;92864.00;5063314;28;20254;-75
2022/01/09 05:59:34;;;;;;;0.27;0.27;;;;;;;2.99;100.00;92865.31;5083967;28;20359;-75
2022/01/09 06:01:59;;;;;;;0.27;0.27;;;;;;;3.01;100.00;92860.97;5062038;28;20194;-74
2022/01/09 06:04:25;;;;;;;0.20;0.20;;;;;;;3.00;100.00;92861.41;5083156;28;20555;-74
2022/01/09 06:06:51;;;;;;;0.30;0.30;;;;;;;3.00;100.00;92856.03;5075834;28;20663;-75
2022/01/09 06:09:17;;;;;;;0.50;0.50;;;;;;;3.02;100.00;92850.94;5077614;28;20787;-74
2022/01/09 06:11:43;;;;;;;0.40;0.40;;;;;;;3.01;100.00;92865.59;5073003;28;20190;-74
2022/01/09 06:14:08;;;;;;;0.20;0.20;;;;;;;2.98;100.00;92861.88;5048534;28;20679;-75
2022/01/09 06:16:34;;;;;;;0.20;0.20;;;;;;;2.95;100.00;92868.19;5072160;28;20590;-75
2022/01/09 06:19:00;;;;;;;0.20;0.20;;;;;;;3.02;100.00;92854.34;5069154;28;20193;-74
2022/01/09 06:21:26;;;;;;;0.20;0.20;;;;;;;3.01;100.00;92850.16;5059730;28;20592;-75
2022/01/09 06:23:52;;;;;;;0.20;0.20;;;;;;;3.06;100.00;92898.06;5078838;28;20239;-74
2022/01/09 06:26:18;;;;;;;0.23;0.23;;;;;;;2.92;100.00;92900.72;5071084;28;20300;-74
2022/01/09 06:28:43;;;;;;;0.20;0.20;;;;;;;2.72;100.00;92903.91;5070868;28;20279;-74
2022/01/09 06:31:09;;;;;;;0.20;0.20;;;;;;;2.56;100.00;92911.63;5072571;28;20215;-74
2022/01/09 06:33:35;;;;;;;0.20;0.20;;;;;;;2.32;100.00;92925.00;5070065;28;20256;-74
2022/01/09 06:36:00;;;;;;;0.30;0.30;;;;;;;2.25;100.00;92918.00;5076626;28;20286;-74
2022/01/09 06:38:26;;;;;;;0.20;0.20;;;;;;;2.13;100.00;92916.22;5069173;28;20258;-74
2022/01/09 06:40:52;;;;;;;0.27;0.27;;;;;;;2.07;100.00;92920.69;5046222;28;20212;-75
2022/01/09 06:43:18;;;;;;;0.20;0.20;;;;;;;2.03;100.00;92919.38;5056314;28;20190;-74
2022/01/09 06:45:43;;;;;;;0.30;0.30;;;;;;;2.09;100.00;92933.72;5057558;28;20241;-74
2022/01/09 06:48:09;;;;;;;0.20;0.20;;;;;;;2.13;100.00;92945.09;5068057;28;20194;-74
2022/01/09 06:50:35;;;;;;;0.30;0.30;;;;;;;2.05;100.00;92939.25;5068102;28;20197;-74
2022/01/09 06:53:01;;;;;;;0.20;0.20;;;;;;;2.05;100.00;92938.50;5057957;28;20197;-74
2022/01/09 06:55:26;;;;;;;0.20;0.20;;;;;;;2.04;100.00;92939.69;5074346;28;20308;-74
2022/01/09 06:57:53;;;;;;;0.30;0.30;;;;;;;2.10;100.00;92964.84;5081367;28;20292;-74
2022/01/09 07:00:20;;;;;;;0.20;0.20;;;;;;;1.96;100.00;92947.34;5054862;28;20190;-74
2022/01/09 07:02:46;;;;;;;0.20;0.20;;;;;;;1.99;100.00;92978.75;5068866;28;20190;-74
2022/01/09 07:05:12;;;;;;;0.20;0.20;;;;;;;1.89;100.00;92979.19;5087539;28;20205;-75
2022/01/09 07:07:41;;;;;;;0.20;0.20;;;;;;;1.76;100.00;92986.66;5072806;28;20213;-75
2022/01/09 07:10:08;;;;;;;0.20;0.20;;;;;;;1.72;100.00;93007.56;5075882;28;20197;-74
2022/01/09 07:12:34;;;;;;;1.60;0.30;;;;;;;1.60;100.00;93009.19;5070177;28;20281;-74
2022/01/09 07:15:00;;;;;;;0.20;0.20;;;;;;;1.53;100.00;92990.66;5048189;28;20190;-74
2022/01/09 07:17:25;;;;;;;0.20;0.20;;;;;;;1.46;100.00;92993.63;5067853;28;20206;-74
2022/01/09 07:19:51;;;;;;;0.20;0.20;;;;;;;1.42;100.00;93021.84;5053716;28;20186;-74
2022/01/09 07:22:17;;;;;;;0.20;0.20;;;;;;;1.32;100.00;93031.84;5060277;28;20195;-74
2022/01/09 07:24:42;;;;;;;0.87;0.30;;;;;;;1.31;100.00;93035.00;5079329;28;20197;-74
2022/01/09 07:27:08;;;;;;;0.20;0.20;;;;;;;1.30;100.00;93033.47;5072703;28;20299;-74
2022/01/09 07:29:34;;;;;;;0.30;0.30;;;;;;;1.33;100.00;93043.34;5056199;28;20206;-74
2022/01/09 07:32:03;;;;;;;0.20;0.20;;;;;;;1.28;100.00;93058.13;5052998;28;20189;-74
2022/01/09 07:34:29;;;;;;;0.30;0.30;;;;;;;1.21;100.00;93040.31;5067849;28;20204;-75
2022/01/09 07:36:55;;;;;;;0.20;0.20;;;;;;;1.25;100.00;93075.13;5066515;28;20214;-74
2022/01/09 07:39:24;;;;;;;0.20;0.20;;;;;;;1.26;100.00;93057.81;5074182;28;20201;-74
2022/01/09 07:41:50;;;;;;;0.30;0.30;;;;;;;1.35;100.00;93067.84;5071303;28;20290;-75
2022/01/09 07:44:18;;;;;;;0.27;0.23;;;;;;;1.43;100.00;93069.81;5060526;28;20252;-75
2022/01/09 07:46:44;;;;;;;0.23;0.23;;;;;;;1.43;100.00;93079.81;5072900;28;20209;-74
2022/01/09 07:49:10;;;;;;;0.30;0.30;;;;;;;1.39;100.00;93079.22;5064422;28;20221;-74
2022/01/09 07:51:35;;;;;;;0.20;0.20;;;;;;;1.37;100.00;93076.22;5070836;28;20186;-74
2022/01/09 07:54:01;;;;;;;0.23;0.23;;;;;;;1.46;100.00;93089.72;5064132;28;20186;-75
2022/01/09 07:56:27;;;;;;;0.20;0.20;;;;;;;1.50;100.00;93093.75;5069876;28;20213;-74
2022/01/09 07:58:52;;;;;;;0.27;0.27;;;;;;;1.50;100.00;93083.00;5065092;28;20272;-74
2022/01/09 08:01:18;;;;;;;0.30;0.30;;;;;;;1.54;100.00;93104.38;5079473;28;20276;-74
2022/01/09 08:03:43;;;;;;;0.30;0.30;;;;;;;1.62;100.00;93110.97;5057103;28;20660;-75
2022/01/09 08:06:09;;;;;;;0.30;0.30;;;;;;;1.62;100.00;93110.97;5066109;28;20255;-74
2022/01/09 08:08:34;;;;;;;0.30;0.30;;;;;;;1.59;100.00;93107.25;5072761;28;20208;-74
2022/01/09 08:11:00;;;;;;;0.40;0.40;;;;;;;1.65;100.00;93118.91;5065387;28;20189;-74
2022/01/09 08:13:26;;;;;;;0.43;0.30;;;;;;;1.72;100.00;93134.03;5060636;28;20674;-74
2022/01/09 08:15:51;;;;;;;0.20;0.20;;;;;;;1.68;100.00;93136.13;5062321;28;20204;-75
2022/01/09 08:18:17;;;;;;;0.50;0.50;;;;;;;1.68;100.00;93142.22;5086205;28;20235;-75
2022/01/09 08:20:42;;;;;;;0.30;0.30;;;;;;;1.78;100.00;93143.03;5088363;28;20189;-74
2022/01/09 08:23:08;;;;;;;0.30;0.30;;;;;;;1.78;100.00;93161.84;5069127;28;20863;-74
2022/01/09 08:25:34;;;;;;;0.20;0.20;;;;;;;1.78;100.00;93164.56;5060464;28;20206;-74
2022/01/09 08:28:00;;;;;;;0.50;0.50;;;;;;;1.84;100.00;93187.75;5080066;28;20725;-74
2022/01/09 08:30:25;;;;;;;0.33;0.33;;;;;;;1.78;100.00;93173.34;5063303;28;20550;-74
2022/01/09 08:32:56;;;;;;;0.40;0.40;;;;;;;1.72;100.00;93166.31;5056792;28;20201;-74
2022/01/09 08:35:43;;;;;;;0.63;0.30;;;;;;;1.78;100.00;93202.22;5062856;28;20757;-74
2022/01/09 08:38:09;;;;;;;0.30;0.30;;;;;;;1.76;100.00;93183.06;5058304;28;20223;-75
2022/01/09 08:40:35;;;;;;;0.40;0.40;;;;;;;1.79;100.00;93191.00;5069220;28;20194;-74
2022/01/09 08:43:00;;;;;;;0.30;0.30;;;;;;;1.84;100.00;93190.44;5055367;28;20197;-74
2022/01/09 08:45:26;;;;;;;0.30;0.30;;;;;;;1.80;100.00;93216.72;5055622;28;20211;-74
2022/01/09 08:47:52;;;;;;;0.40;0.40;;;;;;;1.82;100.00;93200.88;5071337;28;20205;-74
2022/01/09 08:50:20;;;;;;;0.30;0.30;;;;;;;1.76;100.00;93202.66;5075955;28;20200;-74
2022/01/09 08:52:46;;;;;;;0.30;0.30;;;;;;;1.82;100.00;93208.97;5047880;28;20258;-74
2022/01/09 08:55:13;;;;;;;0.60;0.30;;;;;;;1.81;100.00;93212.09;5028801;28;20305;-74
2022/01/09 08:57:39;;;;;;;0.37;0.37;;;;;;;1.87;100.00;93213.00;5063567;28;20221;-74
2022/01/09 09:00:05;;;;;;;0.40;0.40;;;;;;;1.74;100.00;93215.81;5057916;28;20193;-73
2022/01/09 09:02:31;;;;;;;0.40;0.30;;;;;;;1.81;100.00;93241.69;5070705;28;20221;-74
2022/01/09 09:04:57;;;;;;;0.30;0.30;;;;;;;1.79;100.00;93234.06;5072278;28;20181;-74
2022/01/09 09:07:24;;;;;;;0.20;0.20;;;;;;;1.76;100.00;93231.50;5058937;28;20224;-74
2022/01/09 09:09:56;;;;;;;0.40;0.40;;;;;;;1.79;100.00;93241.38;5053388;28;20224;-74
2022/01/09 09:12:21;;;;;;;0.37;0.20;;;;;;;1.82;100.00;93246.63;5071233;28;20177;-75
2022/01/09 09:14:48;;;;;;;0.50;0.50;;;;;;;1.89;100.00;93251.75;5053444;28;20194;-74
2022/01/09 09:17:14;;;;;;;0.37;0.30;;;;;;;1.90;100.00;93265.97;5061222;28;20246;-74
2022/01/09 09:19:40;;;;;;;0.47;0.40;;;;;;;1.88;100.00;93254.88;5061196;28;20222;-74
2022/01/09 09:22:06;;;;;;;0.30;0.30;;;;;;;1.85;100.00;93259.19;5065977;28;20189;-74
2022/01/09 09:24:31;;;;;;;0.30;0.30;;;;;;;1.75;100.00;93265.00;5048021;28;20194;-75
2022/01/09 09:26:57;;;;;;;0.50;0.50;;;;;;;1.88;100.00;93268.34;5062224;28;20202;-74
2022/01/09 09:29:23;;;;;;;0.33;0.33;;;;;;;1.99;100.00;93280.22;5070194;28;20190;-74
2022/01/09 09:31:48;;;;;;;0.23;0.23;;;;;;;2.02;100.00;93271.25;5067129;28;20265;-74
2022/01/09 09:34:34;;;;;;;1.13;0.40;;;;;;;1.94;100.00;93280.78;5049859;28;20220;-74
2022/01/09 09:37:20;;;;;;;1.03;0.30;;;;;;;1.88;100.00;93277.19;5092555;27;20299;-74
2022/01/09 09:40:08;;;;;;;0.77;0.30;;;;;;;1.84;100.00;93276.56;5106185;27;20219;-73
2022/01/09 09:42:55;;;;;;;0.77;0.40;;;;;;;2.00;100.00;93280.97;5102530;28;20674;-74
2022/01/09 09:45:40;;;;;;;0.30;0.30;;;;;;;1.91;100.00;93287.06;5097427;28;20208;-74
2022/01/09 09:48:26;;;;;;;0.40;0.40;;;;;;;1.86;100.00;93293.00;5105900;27;20185;-74
2022/01/09 09:51:15;;;;;;;0.67;0.40;;;;;;;1.93;100.00;93295.44;5113307;27;20851;-74
2022/01/09 09:54:01;;;;;;;1.43;0.40;;;;;;;1.96;100.00;93308.00;5106055;28;20220;-74
2022/01/09 09:56:47;;;;;;;0.20;0.20;;;;;;;1.71;100.00;93280.50;5089807;27;20209;-74
2022/01/09 09:59:38;;;;;;;0.50;0.40;;;;;;;1.85;100.00;93310.34;5121718;27;20265;-74
2022/01/09 10:02:24;;;;;;;0.30;0.30;;;;;;;1.88;100.00;93292.56;5089569;28;20191;-73
2022/01/09 10:05:11;;;;;;;0.57;0.50;;;;;;;1.87;100.00;93302.56;5088243;28;20210;-74
2022/01/09 10:08:05;;;;;;;0.30;0.30;;;;;;;2.01;100.00;93299.38;5102147;27;20622;-73
2022/01/09 10:10:51;;;;;;;1.17;0.50;;;;;;;2.01;100.00;93295.91;5093376;28;20774;-74
2022/01/09 10:13:37;;;;;;;0.53;0.40;;;;;;;2.07;100.00;93286.81;5085486;28;20632;-74
2022/01/09 10:16:23;;;;;;;0.60;0.47;;;;;;;2.14;100.00;93283.88;5078739;28;20301;-74
2022/01/09 10:19:09;;;;;;;0.67;0.67;;;;;;;2.10;100.00;93298.66;5105994;28;20329;-74
2022/01/09 10:21:54;;;;;;;0.87;0.50;;;;;;;1.80;100.00;93299.41;5098965;28;20532;-74
2022/01/09 10:24:40;;;;;;;0.60;0.37;;;;;;;1.99;100.00;93304.44;5106626;27;20221;-74
2022/01/09 10:27:32;;;;;;;0.50;0.37;;;;;;;2.00;100.00;93305.94;5082195;28;20193;-74
2022/01/09 10:30:22;;;;;;;0.93;0.63;;;;;;;2.06;100.00;93314.19;5090164;28;20204;-74
2022/01/09 10:33:14;;;;;;;2.13;0.50;;;;;;;2.15;100.00;93306.91;5102194;27;20196;-74
2022/01/09 10:36:00;;;;;;;0.37;0.37;;;;;;;2.04;100.00;93317.31;5086395;28;20299;-74
2022/01/09 10:38:46;;;;;;;1.23;0.50;;;;;;;2.08;100.00;93299.09;5105579;28;20438;-74
2022/01/09 10:41:55;;;;;;;1.47;0.60;;;;;;;2.15;100.00;93308.84;5105109;27;20562;-74
2022/01/09 10:44:43;;;;;;;2.20;0.40;;;;;;;2.05;100.00;93313.44;5092802;28;20189;-75
2022/01/09 10:47:37;;;;;;;0.93;0.50;;;;;;;2.03;100.00;93323.91;5110182;27;20265;-74
2022/01/09 10:50:25;;;;;;;1.37;0.60;;;;;;;2.06;100.00;93328.41;5091873;28;20194;-74
2022/01/09 10:53:25;;;;;;;0.50;0.50;;;;;;;2.12;100.00;93331.28;5094761;28;20323;-74
2022/01/09 10:56:15;;;;;;;0.97;0.60;;;;;;;1.95;100.00;93340.75;5113065;28;20276;-74
2022/01/09 10:59:01;;;;;;;1.47;0.60;;;;;;;1.87;100.00;93342.19;5099657;28;20228;-74
2022/01/09 11:01:48;;;;;;;1.60;0.87;;;;;;;1.88;100.00;93349.84;5107456;28;20200;-74
2022/01/09 11:04:34;;;;;;;1.00;0.70;;;;;;;2.04;100.00;93346.19;5106795;28;20245;-73
2022/01/09 11:07:20;;;;;;;1.17;0.77;;;;;;;1.93;100.00;93343.13;5098079;28;20225;-75
2022/01/09 11:10:08;;;;;;;1.37;0.70;;;;;;;1.77;100.00;93354.09;5072102;28;20292;-74
2022/01/09 11:12:59;;;;;;;2.40;0.83;;;;;;;1.83;100.00;93341.56;5093651;28;20253;-74
2022/01/09 11:16:32;;;;;;;3.93;0.63;;;;;;;1.95;100.00;93357.63;5112802;28;20208;-74
2022/01/09 11:18:51;;;;;;;1.13;0.70;;;;;;;2.00;100.00;93362.47;5099323;28;20220;-74
2022/01/09 11:21:41;;;;;;;4.03;0.93;;;;;;;2.03;100.00;93379.69;5091420;28;20200;-74
2022/01/09 11:24:39;;;;;;;1.87;0.83;;;;;;;2.25;100.00;93372.34;5108363;28;20235;-73
2022/01/09 11:27:43;;;;;;;3.40;0.77;;;;;;;2.18;100.00;93375.28;5104660;28;20555;-74
2022/01/09 11:30:41;;;;;;;3.70;0.77;;;;;;;2.05;100.00;93380.72;5076894;28;20204;-74
2022/01/09 11:33:33;;;;;;;3.40;0.80;;;;;;;2.09;100.00;93377.91;5088834;28;20258;-74
2022/01/09 11:36:35;;;;;;;2.73;0.80;;;;;;;2.10;100.00;93382.88;5105806;27;20221;-74
2022/01/09 11:39:29;;;;;;;1.60;0.80;;;;;;;2.27;100.00;93372.66;5094865;28;20245;-74
2022/01/09 11:42:16;;;;;;;2.93;0.77;;;;;;;2.17;100.00;93382.59;5075585;28;20208;-74
2022/01/09 11:45:02;;;;;;;2.83;1.07;;;;;;;2.36;100.00;93383.44;5095978;28;20200;-74
2022/01/09 11:47:51;;;;;;;1.90;0.60;;;;;;;2.31;100.00;93386.72;5091019;27;20272;-74
2022/01/09 11:51:05;;;;;;;2.63;1.10;;;;;;;2.39;100.00;93387.97;5089973;27;20200;-73